sensor_id;sensor_type;location;lat;lon;timestamp;P1;durP1;ratioP1;P2;durP2;ratioP2
17157;SDS011;37344;51.948;7.622;2022-07-29T00:00:48;2.03;;;0.90;;
17157;SDS011;37344;51.948;7.622;2022-07-29T00:03:16;1.50;;;0.93;;
17157;SDS011;37344;51.948;7.622;2022-07-29T00:05:43;2.60;;;1.20;;
17157;SDS011;37344;51.948;7.622;2022-07-29T00:08:10;1.20;;;0.73;;
17157;SDS011;37344;51.948;7.622;2022-07-29T00:10:38;1.33;;;0.85;;
17157;SDS011;37344;51.948;7.622;2022-07-29T00:13:05;2.33;;;1.02;;
17157;SDS011;37344;51.948;7.622;2022-07-29T00:15:34;2.50;;;0.82;;
17157;SDS011;37344;51.948;7.622;2022-07-29T00:18:01;1.50;;;0.90;;
17157;SDS011;37344;51.948;7.622;2022-07-29T00:20:28;3.90;;;1.00;;
17157;SDS011;37344;51.948;7.622;2022-07-29T00:22:56;2.05;;;1.00;;
17157;SDS011;37344;51.948;7.622;2022-07-29T00:25:23;5.22;;;1.08;;
17157;SDS011;37344;51.948;7.622;2022-07-29T00:27:51;2.15;;;0.90;;
17157;SDS011;37344;51.948;7.622;2022-07-29T00:30:18;3.45;;;1.33;;
17157;SDS011;37344;51.948;7.622;2022-07-29T00:32:47;5.13;;;1.10;;
17157;SDS011;37344;51.948;7.622;2022-07-29T00:35:14;4.85;;;1.10;;
17157;SDS011;37344;51.948;7.622;2022-07-29T00:37:59;3.10;;;1.02;;
17157;SDS011;37344;51.948;7.622;2022-07-29T00:40:26;2.15;;;1.17;;
17157;SDS011;37344;51.948;7.622;2022-07-29T00:42:53;2.90;;;1.08;;
17157;SDS011;37344;51.948;7.622;2022-07-29T00:45:21;3.95;;;1.10;;
17157;SDS011;37344;51.948;7.622;2022-07-29T00:47:50;3.17;;;1.25;;
17157;SDS011;37344;51.948;7.622;2022-07-29T00:50:18;1.92;;;1.15;;
17157;SDS011;37344;51.948;7.622;2022-07-29T00:52:45;6.05;;;1.38;;
17157;SDS011;37344;51.948;7.622;2022-07-29T00:55:14;2.83;;;1.20;;
17157;SDS011;37344;51.948;7.622;2022-07-29T00:57:42;2.10;;;1.40;;
17157;SDS011;37344;51.948;7.622;2022-07-29T01:00:10;2.63;;;1.33;;
17157;SDS011;37344;51.948;7.622;2022-07-29T01:02:38;4.57;;;1.80;;
17157;SDS011;37344;51.948;7.622;2022-07-29T01:05:07;3.13;;;1.30;;
17157;SDS011;37344;51.948;7.622;2022-07-29T01:07:35;3.17;;;1.35;;
17157;SDS011;37344;51.948;7.622;2022-07-29T01:10:03;1.45;;;1.05;;
17157;SDS011;37344;51.948;7.622;2022-07-29T01:12:31;2.55;;;1.40;;
17157;SDS011;37344;51.948;7.622;2022-07-29T01:14:59;4.38;;;1.27;;
17157;SDS011;37344;51.948;7.622;2022-07-29T01:17:28;5.97;;;1.33;;
17157;SDS011;37344;51.948;7.622;2022-07-29T01:19:58;3.08;;;1.30;;
17157;SDS011;37344;51.948;7.622;2022-07-29T01:22:31;2.50;;;1.00;;
17157;SDS011;37344;51.948;7.622;2022-07-29T01:25:05;2.65;;;1.30;;
17157;SDS011;37344;51.948;7.622;2022-07-29T01:27:38;2.35;;;1.02;;
17157;SDS011;37344;51.948;7.622;2022-07-29T01:30:09;2.42;;;0.98;;
17157;SDS011;37344;51.948;7.622;2022-07-29T01:32:38;4.35;;;1.17;;
17157;SDS011;37344;51.948;7.622;2022-07-29T01:35:07;1.67;;;1.00;;
17157;SDS011;37344;51.948;7.622;2022-07-29T01:37:38;2.38;;;1.15;;
17157;SDS011;37344;51.948;7.622;2022-07-29T01:40:08;2.60;;;0.90;;
17157;SDS011;37344;51.948;7.622;2022-07-29T01:42:38;3.25;;;1.27;;
17157;SDS011;37344;51.948;7.622;2022-07-29T01:45:08;4.30;;;1.40;;
17157;SDS011;37344;51.948;7.622;2022-07-29T01:47:40;4.63;;;1.00;;
17157;SDS011;37344;51.948;7.622;2022-07-29T01:50:10;2.00;;;1.08;;
17157;SDS011;37344;51.948;7.622;2022-07-29T01:52:39;2.10;;;1.00;;
17157;SDS011;37344;51.948;7.622;2022-07-29T01:55:09;2.78;;;1.02;;
17157;SDS011;37344;51.948;7.622;2022-07-29T01:57:39;2.10;;;0.98;;
17157;SDS011;37344;51.948;7.622;2022-07-29T02:00:08;2.05;;;1.10;;
17157;SDS011;37344;51.948;7.622;2022-07-29T02:02:40;1.55;;;1.00;;
17157;SDS011;37344;51.948;7.622;2022-07-29T02:05:10;1.65;;;1.05;;
17157;SDS011;37344;51.948;7.622;2022-07-29T02:07:37;2.83;;;1.00;;
17157;SDS011;37344;51.948;7.622;2022-07-29T02:10:06;3.78;;;1.10;;
17157;SDS011;37344;51.948;7.622;2022-07-29T02:12:35;2.40;;;1.00;;
17157;SDS011;37344;51.948;7.622;2022-07-29T02:15:03;1.20;;;0.90;;
17157;SDS011;37344;51.948;7.622;2022-07-29T02:17:32;2.05;;;1.05;;
17157;SDS011;37344;51.948;7.622;2022-07-29T02:20:02;2.42;;;1.20;;
17157;SDS011;37344;51.948;7.622;2022-07-29T02:22:31;2.20;;;1.08;;
17157;SDS011;37344;51.948;7.622;2022-07-29T02:25:00;2.42;;;1.08;;
17157;SDS011;37344;51.948;7.622;2022-07-29T02:27:28;2.42;;;1.10;;
17157;SDS011;37344;51.948;7.622;2022-07-29T02:29:55;1.67;;;1.10;;
17157;SDS011;37344;51.948;7.622;2022-07-29T02:32:24;1.60;;;1.10;;
17157;SDS011;37344;51.948;7.622;2022-07-29T02:34:53;3.08;;;1.17;;
17157;SDS011;37344;51.948;7.622;2022-07-29T02:37:22;1.60;;;1.00;;
17157;SDS011;37344;51.948;7.622;2022-07-29T02:39:50;2.55;;;1.00;;
17157;SDS011;37344;51.948;7.622;2022-07-29T02:42:19;2.38;;;1.10;;
17157;SDS011;37344;51.948;7.622;2022-07-29T02:44:48;1.33;;;1.10;;
17157;SDS011;37344;51.948;7.622;2022-07-29T02:47:17;1.95;;;1.23;;
17157;SDS011;37344;51.948;7.622;2022-07-29T02:49:48;2.95;;;1.20;;
17157;SDS011;37344;51.948;7.622;2022-07-29T02:52:18;1.83;;;1.10;;
17157;SDS011;37344;51.948;7.622;2022-07-29T02:54:49;2.28;;;1.10;;
17157;SDS011;37344;51.948;7.622;2022-07-29T02:57:19;3.13;;;1.20;;
17157;SDS011;37344;51.948;7.622;2022-07-29T02:59:47;3.83;;;1.30;;
17157;SDS011;37344;51.948;7.622;2022-07-29T03:02:16;3.28;;;1.10;;
17157;SDS011;37344;51.948;7.622;2022-07-29T03:04:44;1.90;;;1.20;;
17157;SDS011;37344;51.948;7.622;2022-07-29T03:07:14;1.60;;;1.00;;
17157;SDS011;37344;51.948;7.622;2022-07-29T03:09:42;1.98;;;1.00;;
17157;SDS011;37344;51.948;7.622;2022-07-29T03:12:11;1.27;;;1.00;;
17157;SDS011;37344;51.948;7.622;2022-07-29T03:14:38;1.60;;;1.10;;
17157;SDS011;37344;51.948;7.622;2022-07-29T03:17:06;1.60;;;0.93;;
17157;SDS011;37344;51.948;7.622;2022-07-29T03:19:34;1.90;;;1.10;;
17157;SDS011;37344;51.948;7.622;2022-07-29T03:22:01;2.03;;;0.93;;
17157;SDS011;37344;51.948;7.622;2022-07-29T03:24:30;1.67;;;1.10;;
17157;SDS011;37344;51.948;7.622;2022-07-29T03:26:58;1.83;;;1.15;;
17157;SDS011;37344;51.948;7.622;2022-07-29T03:29:27;2.80;;;1.15;;
17157;SDS011;37344;51.948;7.622;2022-07-29T03:31:54;1.08;;;0.98;;
17157;SDS011;37344;51.948;7.622;2022-07-29T03:34:22;1.60;;;1.10;;
17157;SDS011;37344;51.948;7.622;2022-07-29T03:36:49;4.03;;;1.10;;
17157;SDS011;37344;51.948;7.622;2022-07-29T03:39:18;2.67;;;1.20;;
17157;SDS011;37344;51.948;7.622;2022-07-29T03:41:47;2.13;;;1.08;;
17157;SDS011;37344;51.948;7.622;2022-07-29T03:44:15;1.10;;;0.80;;
17157;SDS011;37344;51.948;7.622;2022-07-29T03:46:45;1.23;;;1.10;;
17157;SDS011;37344;51.948;7.622;2022-07-29T03:49:13;4.35;;;1.10;;
17157;SDS011;37344;51.948;7.622;2022-07-29T03:51:41;3.08;;;1.23;;
17157;SDS011;37344;51.948;7.622;2022-07-29T03:54:08;1.10;;;0.95;;
17157;SDS011;37344;51.948;7.622;2022-07-29T03:56:37;3.47;;;1.15;;
17157;SDS011;37344;51.948;7.622;2022-07-29T03:59:05;0.95;;;0.70;;
17157;SDS011;37344;51.948;7.622;2022-07-29T04:01:33;1.73;;;1.23;;
17157;SDS011;37344;51.948;7.622;2022-07-29T04:04:02;2.28;;;0.88;;
17157;SDS011;37344;51.948;7.622;2022-07-29T04:06:36;1.23;;;0.98;;
17157;SDS011;37344;51.948;7.622;2022-07-29T04:09:04;1.98;;;1.00;;
17157;SDS011;37344;51.948;7.622;2022-07-29T04:11:31;1.60;;;1.08;;
17157;SDS011;37344;51.948;7.622;2022-07-29T04:13:59;1.23;;;0.93;;
17157;SDS011;37344;51.948;7.622;2022-07-29T04:16:26;2.50;;;1.00;;
17157;SDS011;37344;51.948;7.622;2022-07-29T04:18:54;2.30;;;0.98;;
17157;SDS011;37344;51.948;7.622;2022-07-29T04:21:22;1.95;;;1.00;;
17157;SDS011;37344;51.948;7.622;2022-07-29T04:23:50;0.98;;;0.80;;
17157;SDS011;37344;51.948;7.622;2022-07-29T04:26:17;1.13;;;0.90;;
17157;SDS011;37344;51.948;7.622;2022-07-29T04:28:46;2.58;;;1.00;;
17157;SDS011;37344;51.948;7.622;2022-07-29T04:31:14;3.00;;;1.17;;
17157;SDS011;37344;51.948;7.622;2022-07-29T04:33:41;1.95;;;1.00;;
17157;SDS011;37344;51.948;7.622;2022-07-29T04:36:09;1.75;;;1.17;;
17157;SDS011;37344;51.948;7.622;2022-07-29T04:38:38;3.17;;;0.95;;
17157;SDS011;37344;51.948;7.622;2022-07-29T04:41:06;2.85;;;1.15;;
17157;SDS011;37344;51.948;7.622;2022-07-29T04:43:33;1.50;;;1.08;;
17157;SDS011;37344;51.948;7.622;2022-07-29T04:46:01;2.50;;;1.00;;
17157;SDS011;37344;51.948;7.622;2022-07-29T04:48:28;3.75;;;1.30;;
17157;SDS011;37344;51.948;7.622;2022-07-29T04:50:56;2.10;;;1.20;;
17157;SDS011;37344;51.948;7.622;2022-07-29T04:53:23;1.98;;;1.10;;
17157;SDS011;37344;51.948;7.622;2022-07-29T04:55:52;1.40;;;1.00;;
17157;SDS011;37344;51.948;7.622;2022-07-29T04:58:19;1.95;;;1.35;;
17157;SDS011;37344;51.948;7.622;2022-07-29T05:00:48;3.90;;;1.23;;
17157;SDS011;37344;51.948;7.622;2022-07-29T05:03:15;2.28;;;1.45;;
17157;SDS011;37344;51.948;7.622;2022-07-29T05:05:42;2.95;;;1.00;;
17157;SDS011;37344;51.948;7.622;2022-07-29T05:08:10;3.03;;;1.05;;
17157;SDS011;37344;51.948;7.622;2022-07-29T05:10:37;2.72;;;1.00;;
17157;SDS011;37344;51.948;7.622;2022-07-29T05:13:06;2.05;;;1.10;;
17157;SDS011;37344;51.948;7.622;2022-07-29T05:15:34;0.98;;;0.90;;
17157;SDS011;37344;51.948;7.622;2022-07-29T05:18:01;1.40;;;0.90;;
17157;SDS011;37344;51.948;7.622;2022-07-29T05:20:29;1.17;;;0.82;;
17157;SDS011;37344;51.948;7.622;2022-07-29T05:22:58;1.65;;;0.77;;
17157;SDS011;37344;51.948;7.622;2022-07-29T05:25:26;0.73;;;0.70;;
17157;SDS011;37344;51.948;7.622;2022-07-29T05:27:54;1.45;;;0.95;;
17157;SDS011;37344;51.948;7.622;2022-07-29T05:30:23;4.22;;;1.30;;
17157;SDS011;37344;51.948;7.622;2022-07-29T05:32:51;1.88;;;1.20;;
17157;SDS011;37344;51.948;7.622;2022-07-29T05:35:18;4.28;;;1.10;;
17157;SDS011;37344;51.948;7.622;2022-07-29T05:37:46;3.78;;;1.30;;
17157;SDS011;37344;51.948;7.622;2022-07-29T05:40:13;4.32;;;1.40;;
17157;SDS011;37344;51.948;7.622;2022-07-29T05:42:40;3.95;;;1.23;;
17157;SDS011;37344;51.948;7.622;2022-07-29T05:45:08;3.42;;;1.35;;
17157;SDS011;37344;51.948;7.622;2022-07-29T05:47:37;2.55;;;1.30;;
17157;SDS011;37344;51.948;7.622;2022-07-29T05:50:05;3.97;;;0.98;;
17157;SDS011;37344;51.948;7.622;2022-07-29T05:52:32;3.85;;;1.40;;
17157;SDS011;37344;51.948;7.622;2022-07-29T05:55:00;2.28;;;1.15;;
17157;SDS011;37344;51.948;7.622;2022-07-29T05:57:30;3.60;;;1.13;;
17157;SDS011;37344;51.948;7.622;2022-07-29T05:59:58;3.70;;;1.30;;
17157;SDS011;37344;51.948;7.622;2022-07-29T06:02:25;5.85;;;1.45;;
17157;SDS011;37344;51.948;7.622;2022-07-29T06:04:54;1.70;;;1.00;;
17157;SDS011;37344;51.948;7.622;2022-07-29T06:07:21;2.55;;;1.40;;
17157;SDS011;37344;51.948;7.622;2022-07-29T06:09:49;2.35;;;1.30;;
17157;SDS011;37344;51.948;7.622;2022-07-29T06:12:16;3.80;;;1.10;;
17157;SDS011;37344;51.948;7.622;2022-07-29T06:14:44;2.67;;;1.42;;
17157;SDS011;37344;51.948;7.622;2022-07-29T06:17:12;2.10;;;1.20;;
17157;SDS011;37344;51.948;7.622;2022-07-29T06:19:39;5.10;;;1.70;;
17157;SDS011;37344;51.948;7.622;2022-07-29T06:49:10;3.67;;;1.23;;
17157;SDS011;37344;51.948;7.622;2022-07-29T06:51:39;4.72;;;1.25;;
17157;SDS011;37344;51.948;7.622;2022-07-29T06:54:06;5.40;;;1.23;;
17157;SDS011;37344;51.948;7.622;2022-07-29T06:56:34;3.88;;;1.15;;
17157;SDS011;37344;51.948;7.622;2022-07-29T06:59:02;2.53;;;1.40;;
17157;SDS011;37344;51.948;7.622;2022-07-29T07:01:30;2.50;;;1.40;;
17157;SDS011;37344;51.948;7.622;2022-07-29T07:03:57;4.13;;;1.25;;
17157;SDS011;37344;51.948;7.622;2022-07-29T07:06:26;5.03;;;1.40;;
17157;SDS011;37344;51.948;7.622;2022-07-29T07:08:53;4.60;;;1.38;;
17157;SDS011;37344;51.948;7.622;2022-07-29T07:11:21;3.47;;;1.20;;
17157;SDS011;37344;51.948;7.622;2022-07-29T07:13:48;2.72;;;1.20;;
17157;SDS011;37344;51.948;7.622;2022-07-29T07:16:16;4.40;;;1.70;;
17157;SDS011;37344;51.948;7.622;2022-07-29T09:26:52;2.00;;;1.00;;
17157;SDS011;37344;51.948;7.622;2022-07-29T09:29:21;1.58;;;1.10;;
17157;SDS011;37344;51.948;7.622;2022-07-29T09:31:50;1.58;;;1.08;;
17157;SDS011;37344;51.948;7.622;2022-07-29T09:34:21;1.83;;;0.82;;
17157;SDS011;37344;51.948;7.622;2022-07-29T09:36:49;1.57;;;0.90;;
17157;SDS011;37344;51.948;7.622;2022-07-29T11:49:46;3.38;;;1.00;;
17157;SDS011;37344;51.948;7.622;2022-07-29T11:52:15;1.55;;;1.00;;
17157;SDS011;37344;51.948;7.622;2022-07-29T11:54:42;2.15;;;0.80;;
17157;SDS011;37344;51.948;7.622;2022-07-29T11:57:10;2.73;;;0.90;;
17157;SDS011;37344;51.948;7.622;2022-07-29T11:59:38;4.65;;;1.05;;
17157;SDS011;37344;51.948;7.622;2022-07-29T12:07:02;4.72;;;1.00;;
17157;SDS011;37344;51.948;7.622;2022-07-29T12:09:29;7.60;;;1.15;;
17157;SDS011;37344;51.948;7.622;2022-07-29T12:11:59;4.55;;;1.10;;
17157;SDS011;37344;51.948;7.622;2022-07-29T12:14:27;3.03;;;0.90;;
17157;SDS011;37344;51.948;7.622;2022-07-29T12:16:54;3.60;;;0.90;;
17157;SDS011;37344;51.948;7.622;2022-07-29T12:19:25;2.22;;;0.93;;
17157;SDS011;37344;51.948;7.622;2022-07-29T12:21:53;2.08;;;1.00;;
17157;SDS011;37344;51.948;7.622;2022-07-29T12:24:22;2.83;;;0.90;;
17157;SDS011;37344;51.948;7.622;2022-07-29T12:26:50;2.90;;;0.93;;
17157;SDS011;37344;51.948;7.622;2022-07-29T12:29:18;1.42;;;0.95;;
17157;SDS011;37344;51.948;7.622;2022-07-29T12:31:45;3.10;;;1.00;;
17157;SDS011;37344;51.948;7.622;2022-07-29T12:34:13;2.40;;;1.10;;
17157;SDS011;37344;51.948;7.622;2022-07-29T12:36:42;2.17;;;1.20;;
17157;SDS011;37344;51.948;7.622;2022-07-29T12:39:09;5.50;;;1.10;;
17157;SDS011;37344;51.948;7.622;2022-07-29T12:41:41;2.00;;;1.05;;
17157;SDS011;37344;51.948;7.622;2022-07-29T12:44:09;0.98;;;0.82;;
17157;SDS011;37344;51.948;7.622;2022-07-29T12:46:37;3.28;;;0.80;;
17157;SDS011;37344;51.948;7.622;2022-07-29T12:49:04;2.40;;;1.03;;
17157;SDS011;37344;51.948;7.622;2022-07-29T12:51:32;3.38;;;1.10;;
17157;SDS011;37344;51.948;7.622;2022-07-29T12:54:02;2.55;;;0.85;;
17157;SDS011;37344;51.948;7.622;2022-07-29T17:53:47;5.30;;;1.30;;
17157;SDS011;37344;51.948;7.622;2022-07-29T17:56:14;2.40;;;1.10;;
17157;SDS011;37344;51.948;7.622;2022-07-29T17:58:41;1.70;;;0.95;;
17157;SDS011;37344;51.948;7.622;2022-07-29T18:01:11;1.13;;;0.82;;
17157;SDS011;37344;51.948;7.622;2022-07-29T18:03:38;1.67;;;1.10;;
17157;SDS011;37344;51.948;7.622;2022-07-29T18:06:06;1.40;;;0.90;;
17157;SDS011;37344;51.948;7.622;2022-07-29T18:08:34;3.33;;;1.10;;
17157;SDS011;37344;51.948;7.622;2022-07-29T18:11:04;2.13;;;1.13;;
17157;SDS011;37344;51.948;7.622;2022-07-29T18:13:32;1.40;;;0.82;;
17157;SDS011;37344;51.948;7.622;2022-07-29T18:15:59;1.88;;;0.80;;
17157;SDS011;37344;51.948;7.622;2022-07-29T18:18:26;2.00;;;1.00;;
17157;SDS011;37344;51.948;7.622;2022-07-29T18:20:54;1.45;;;1.13;;
17157;SDS011;37344;51.948;7.622;2022-07-29T18:23:21;1.98;;;0.98;;
17157;SDS011;37344;51.948;7.622;2022-07-29T18:25:48;3.72;;;1.20;;
17157;SDS011;37344;51.948;7.622;2022-07-29T18:28:17;2.28;;;1.08;;
17157;SDS011;37344;51.948;7.622;2022-07-29T18:30:45;1.40;;;0.90;;
17157;SDS011;37344;51.948;7.622;2022-07-29T18:33:12;1.88;;;1.25;;
17157;SDS011;37344;51.948;7.622;2022-07-29T18:35:41;4.35;;;1.10;;
17157;SDS011;37344;51.948;7.622;2022-07-29T18:38:09;3.30;;;1.20;;
17157;SDS011;37344;51.948;7.622;2022-07-29T18:40:36;3.35;;;1.13;;
17157;SDS011;37344;51.948;7.622;2022-07-29T18:43:06;3.15;;;1.40;;
17157;SDS011;37344;51.948;7.622;2022-07-29T18:45:35;12.05;;;2.10;;
17157;SDS011;37344;51.948;7.622;2022-07-29T18:48:03;2.70;;;2.10;;
17157;SDS011;37344;51.948;7.622;2022-07-29T18:50:32;7.97;;;2.50;;
17157;SDS011;37344;51.948;7.622;2022-07-29T18:53:00;4.63;;;2.22;;
17157;SDS011;37344;51.948;7.622;2022-07-29T18:55:27;4.28;;;2.25;;
17157;SDS011;37344;51.948;7.622;2022-07-29T18:57:54;4.57;;;2.15;;
17157;SDS011;37344;51.948;7.622;2022-07-29T19:00:22;6.35;;;2.55;;
17157;SDS011;37344;51.948;7.622;2022-07-29T19:02:51;6.97;;;2.60;;
17157;SDS011;37344;51.948;7.622;2022-07-29T19:05:19;6.97;;;2.42;;
17157;SDS011;37344;51.948;7.622;2022-07-29T19:07:47;3.63;;;2.33;;
17157;SDS011;37344;51.948;7.622;2022-07-29T19:10:14;5.47;;;2.40;;
17157;SDS011;37344;51.948;7.622;2022-07-29T19:12:42;14.50;;;3.08;;
17157;SDS011;37344;51.948;7.622;2022-07-29T19:15:09;5.53;;;2.78;;
17157;SDS011;37344;51.948;7.622;2022-07-29T19:17:37;6.18;;;2.67;;
17157;SDS011;37344;51.948;7.622;2022-07-29T19:20:06;8.57;;;2.47;;
17157;SDS011;37344;51.948;7.622;2022-07-29T19:22:34;5.45;;;2.47;;
17157;SDS011;37344;51.948;7.622;2022-07-29T19:25:02;3.60;;;2.17;;
17157;SDS011;37344;51.948;7.622;2022-07-29T19:27:29;8.80;;;2.80;;
17157;SDS011;37344;51.948;7.622;2022-07-29T19:29:56;7.38;;;2.50;;
17157;SDS011;37344;51.948;7.622;2022-07-29T19:32:24;10.18;;;2.88;;
17157;SDS011;37344;51.948;7.622;2022-07-29T19:34:51;5.78;;;2.60;;
17157;SDS011;37344;51.948;7.622;2022-07-29T19:37:37;5.70;;;2.70;;
17157;SDS011;37344;51.948;7.622;2022-07-29T19:40:05;6.88;;;2.90;;
17157;SDS011;37344;51.948;7.622;2022-07-29T19:42:34;6.00;;;2.70;;
17157;SDS011;37344;51.948;7.622;2022-07-29T19:45:02;7.07;;;2.60;;
17157;SDS011;37344;51.948;7.622;2022-07-29T19:47:29;7.75;;;2.88;;
17157;SDS011;37344;51.948;7.622;2022-07-29T19:49:57;6.90;;;3.08;;
17157;SDS011;37344;51.948;7.622;2022-07-29T19:52:24;4.88;;;2.85;;
17157;SDS011;37344;51.948;7.622;2022-07-29T19:54:53;5.40;;;2.85;;
17157;SDS011;37344;51.948;7.622;2022-07-29T19:57:21;7.20;;;2.78;;
17157;SDS011;37344;51.948;7.622;2022-07-29T19:59:48;8.15;;;3.42;;
17157;SDS011;37344;51.948;7.622;2022-07-29T20:02:15;7.40;;;3.20;;
17157;SDS011;37344;51.948;7.622;2022-07-29T20:04:43;6.60;;;2.80;;
17157;SDS011;37344;51.948;7.622;2022-07-29T20:07:10;5.85;;;3.00;;
17157;SDS011;37344;51.948;7.622;2022-07-29T20:09:38;6.70;;;3.30;;
17157;SDS011;37344;51.948;7.622;2022-07-29T20:12:07;6.13;;;2.70;;
17157;SDS011;37344;51.948;7.622;2022-07-29T20:14:35;7.90;;;2.97;;
17157;SDS011;37344;51.948;7.622;2022-07-29T20:17:02;4.88;;;3.00;;
17157;SDS011;37344;51.948;7.622;2022-07-29T20:19:30;6.70;;;2.80;;
17157;SDS011;37344;51.948;7.622;2022-07-29T20:21:57;5.93;;;2.70;;
17157;SDS011;37344;51.948;7.622;2022-07-29T20:24:25;5.90;;;2.65;;
17157;SDS011;37344;51.948;7.622;2022-07-29T20:26:52;7.28;;;2.95;;
17157;SDS011;37344;51.948;7.622;2022-07-29T20:29:21;6.85;;;2.47;;
17157;SDS011;37344;51.948;7.622;2022-07-29T20:31:49;7.88;;;2.85;;
17157;SDS011;37344;51.948;7.622;2022-07-29T20:34:16;7.65;;;2.92;;
17157;SDS011;37344;51.948;7.622;2022-07-29T20:36:44;8.07;;;3.20;;
17157;SDS011;37344;51.948;7.622;2022-07-29T20:39:13;9.18;;;3.17;;
17157;SDS011;37344;51.948;7.622;2022-07-29T20:41:40;6.28;;;2.70;;
17157;SDS011;37344;51.948;7.622;2022-07-29T20:44:08;8.82;;;2.83;;
17157;SDS011;37344;51.948;7.622;2022-07-29T20:46:37;7.13;;;2.88;;
17157;SDS011;37344;51.948;7.622;2022-07-29T20:49:05;7.57;;;2.90;;
17157;SDS011;37344;51.948;7.622;2022-07-29T20:51:33;6.53;;;2.83;;
17157;SDS011;37344;51.948;7.622;2022-07-29T20:54:00;5.70;;;2.67;;
17157;SDS011;37344;51.948;7.622;2022-07-29T20:56:30;6.78;;;2.85;;
17157;SDS011;37344;51.948;7.622;2022-07-29T20:58:57;7.32;;;2.65;;
17157;SDS011;37344;51.948;7.622;2022-07-29T21:01:25;7.47;;;3.17;;
17157;SDS011;37344;51.948;7.622;2022-07-29T21:03:54;6.10;;;2.58;;
17157;SDS011;37344;51.948;7.622;2022-07-29T21:06:21;5.63;;;2.33;;
17157;SDS011;37344;51.948;7.622;2022-07-29T21:08:48;5.38;;;3.00;;
17157;SDS011;37344;51.948;7.622;2022-07-29T21:11:16;5.70;;;2.80;;
17157;SDS011;37344;51.948;7.622;2022-07-29T21:13:43;6.15;;;3.03;;
17157;SDS011;37344;51.948;7.622;2022-07-29T21:16:11;6.97;;;2.58;;
17157;SDS011;37344;51.948;7.622;2022-07-29T21:18:39;9.90;;;3.08;;
17157;SDS011;37344;51.948;7.622;2022-07-29T21:21:11;6.32;;;2.80;;
17157;SDS011;37344;51.948;7.622;2022-07-29T21:23:39;5.90;;;2.92;;
17157;SDS011;37344;51.948;7.622;2022-07-29T21:26:06;6.55;;;2.92;;
17157;SDS011;37344;51.948;7.622;2022-07-29T21:28:34;7.43;;;2.85;;
17157;SDS011;37344;51.948;7.622;2022-07-29T21:31:02;9.68;;;3.13;;
17157;SDS011;37344;51.948;7.622;2022-07-29T21:33:30;4.68;;;2.90;;
17157;SDS011;37344;51.948;7.622;2022-07-29T21:35:57;7.38;;;3.05;;
17157;SDS011;37344;51.948;7.622;2022-07-29T21:38:26;6.60;;;2.97;;
17157;SDS011;37344;51.948;7.622;2022-07-29T21:40:54;4.63;;;2.75;;
17157;SDS011;37344;51.948;7.622;2022-07-29T21:43:24;8.65;;;3.20;;
17157;SDS011;37344;51.948;7.622;2022-07-29T21:45:53;6.25;;;3.30;;
17157;SDS011;37344;51.948;7.622;2022-07-29T21:48:21;6.93;;;2.90;;
17157;SDS011;37344;51.948;7.622;2022-07-29T21:50:48;10.43;;;3.40;;
17157;SDS011;37344;51.948;7.622;2022-07-29T21:53:16;9.90;;;3.33;;
17157;SDS011;37344;51.948;7.622;2022-07-29T21:55:45;7.97;;;3.10;;
17157;SDS011;37344;51.948;7.622;2022-07-29T21:58:14;9.80;;;3.20;;
17157;SDS011;37344;51.948;7.622;2022-07-29T22:00:41;6.20;;;2.92;;
17157;SDS011;37344;51.948;7.622;2022-07-29T22:03:09;5.45;;;2.70;;
17157;SDS011;37344;51.948;7.622;2022-07-29T22:05:36;7.20;;;2.85;;
17157;SDS011;37344;51.948;7.622;2022-07-29T22:08:07;10.30;;;3.00;;
17157;SDS011;37344;51.948;7.622;2022-07-29T22:10:34;13.13;;;3.17;;
17157;SDS011;37344;51.948;7.622;2022-07-29T22:13:03;8.98;;;3.00;;
17157;SDS011;37344;51.948;7.622;2022-07-29T22:15:30;5.13;;;2.85;;
17157;SDS011;37344;51.948;7.622;2022-07-29T22:17:58;10.95;;;2.80;;
17157;SDS011;37344;51.948;7.622;2022-07-29T22:20:25;7.75;;;2.90;;
17157;SDS011;37344;51.948;7.622;2022-07-29T22:22:53;7.40;;;3.20;;
17157;SDS011;37344;51.948;7.622;2022-07-29T22:25:20;7.57;;;3.00;;
17157;SDS011;37344;51.948;7.622;2022-07-29T22:27:48;8.02;;;2.85;;
17157;SDS011;37344;51.948;7.622;2022-07-29T22:30:17;6.30;;;2.85;;
17157;SDS011;37344;51.948;7.622;2022-07-29T22:32:44;6.30;;;3.22;;
17157;SDS011;37344;51.948;7.622;2022-07-29T22:35:12;4.32;;;2.92;;
17157;SDS011;37344;51.948;7.622;2022-07-29T22:37:39;7.38;;;2.97;;
17157;SDS011;37344;51.948;7.622;2022-07-29T22:40:07;4.85;;;2.63;;
17157;SDS011;37344;51.948;7.622;2022-07-29T22:42:37;3.72;;;2.58;;
17157;SDS011;37344;51.948;7.622;2022-07-29T22:45:04;5.50;;;2.47;;
17157;SDS011;37344;51.948;7.622;2022-07-29T22:47:33;6.90;;;2.97;;
17157;SDS011;37344;51.948;7.622;2022-07-29T22:50:00;5.35;;;2.65;;
17157;SDS011;37344;51.948;7.622;2022-07-29T22:52:28;7.57;;;2.80;;
17157;SDS011;37344;51.948;7.622;2022-07-29T22:54:55;11.95;;;2.90;;
17157;SDS011;37344;51.948;7.622;2022-07-29T22:57:22;6.97;;;2.60;;
17157;SDS011;37344;51.948;7.622;2022-07-29T22:59:50;6.53;;;3.00;;
17157;SDS011;37344;51.948;7.622;2022-07-29T23:02:17;5.20;;;2.33;;
17157;SDS011;37344;51.948;7.622;2022-07-29T23:04:46;7.00;;;2.80;;
17157;SDS011;37344;51.948;7.622;2022-07-29T23:07:13;6.72;;;2.85;;
17157;SDS011;37344;51.948;7.622;2022-07-29T23:09:40;8.80;;;2.75;;
17157;SDS011;37344;51.948;7.622;2022-07-29T23:12:08;3.72;;;2.30;;
17157;SDS011;37344;51.948;7.622;2022-07-29T23:14:35;6.45;;;2.67;;
17157;SDS011;37344;51.948;7.622;2022-07-29T23:17:03;5.82;;;2.53;;
17157;SDS011;37344;51.948;7.622;2022-07-29T23:19:30;5.00;;;2.67;;
17157;SDS011;37344;51.948;7.622;2022-07-29T23:21:59;6.13;;;2.50;;
17157;SDS011;37344;51.948;7.622;2022-07-29T23:24:26;5.65;;;3.03;;
17157;SDS011;37344;51.948;7.622;2022-07-29T23:26:53;4.68;;;2.70;;
17157;SDS011;37344;51.948;7.622;2022-07-29T23:29:21;6.75;;;2.67;;
17157;SDS011;37344;51.948;7.622;2022-07-29T23:31:48;9.60;;;2.75;;
17157;SDS011;37344;51.948;7.622;2022-07-29T23:34:15;5.43;;;2.70;;
17157;SDS011;37344;51.948;7.622;2022-07-29T23:36:45;6.10;;;2.40;;
17157;SDS011;37344;51.948;7.622;2022-07-29T23:39:14;6.45;;;2.90;;
17157;SDS011;37344;51.948;7.622;2022-07-29T23:41:42;6.60;;;2.67;;
17157;SDS011;37344;51.948;7.622;2022-07-29T23:44:09;4.07;;;2.42;;
17157;SDS011;37344;51.948;7.622;2022-07-29T23:46:36;3.28;;;2.60;;
17157;SDS011;37344;51.948;7.622;2022-07-29T23:49:04;4.68;;;2.60;;
17157;SDS011;37344;51.948;7.622;2022-07-29T23:51:31;5.85;;;2.50;;
17157;SDS011;37344;51.948;7.622;2022-07-29T23:53:58;5.03;;;2.70;;
17157;SDS011;37344;51.948;7.622;2022-07-29T23:56:27;6.30;;;2.97;;
17157;SDS011;37344;51.948;7.622;2022-07-29T23:58:54;3.58;;;2.53;;
